sensor_id;sensor_type;location;lat;lon;timestamp;P1;durP1;ratioP1;P2;durP2;ratioP2
27802;SDS011;15182;48.174;11.562;2023-04-29T00:00:17;1.70;;;1.60;;
27802;SDS011;15182;48.174;11.562;2023-04-29T00:02:48;1.80;;;1.80;;
27802;SDS011;15182;48.174;11.562;2023-04-29T00:05:20;2.03;;;2.03;;
27802;SDS011;15182;48.174;11.562;2023-04-29T00:07:53;1.60;;;1.60;;
27802;SDS011;15182;48.174;11.562;2023-04-29T00:10:25;1.73;;;1.73;;
27802;SDS011;15182;48.174;11.562;2023-04-29T00:12:59;2.00;;;2.00;;
27802;SDS011;15182;48.174;11.562;2023-04-29T00:15:30;2.00;;;2.00;;
27802;SDS011;15182;48.174;11.562;2023-04-29T00:18:04;2.00;;;2.00;;
27802;SDS011;15182;48.174;11.562;2023-04-29T00:20:35;2.13;;;2.13;;
27802;SDS011;15182;48.174;11.562;2023-04-29T00:23:09;2.67;;;1.70;;
27802;SDS011;15182;48.174;11.562;2023-04-29T00:25:40;1.53;;;1.53;;
27802;SDS011;15182;48.174;11.562;2023-04-29T00:28:13;1.63;;;1.63;;
27802;SDS011;15182;48.174;11.562;2023-04-29T00:30:44;1.70;;;1.70;;
27802;SDS011;15182;48.174;11.562;2023-04-29T00:33:16;1.70;;;1.70;;
27802;SDS011;15182;48.174;11.562;2023-04-29T00:35:47;1.47;;;1.47;;
27802;SDS011;15182;48.174;11.562;2023-04-29T00:38:20;1.70;;;1.70;;
27802;SDS011;15182;48.174;11.562;2023-04-29T00:40:52;1.53;;;1.53;;
27802;SDS011;15182;48.174;11.562;2023-04-29T00:43:23;1.63;;;1.63;;
27802;SDS011;15182;48.174;11.562;2023-04-29T00:45:55;1.70;;;1.70;;
27802;SDS011;15182;48.174;11.562;2023-04-29T00:48:26;1.80;;;1.80;;
27802;SDS011;15182;48.174;11.562;2023-04-29T00:50:57;1.90;;;1.80;;
27802;SDS011;15182;48.174;11.562;2023-04-29T00:53:31;1.70;;;1.70;;
27802;SDS011;15182;48.174;11.562;2023-04-29T00:56:05;2.30;;;1.80;;
27802;SDS011;15182;48.174;11.562;2023-04-29T00:58:39;1.60;;;1.60;;
27802;SDS011;15182;48.174;11.562;2023-04-29T01:04:29;1.93;;;1.93;;
27802;SDS011;15182;48.174;11.562;2023-04-29T01:06:59;1.70;;;1.70;;
27802;SDS011;15182;48.174;11.562;2023-04-29T01:09:42;1.73;;;1.73;;
27802;SDS011;15182;48.174;11.562;2023-04-29T01:12:24;1.87;;;1.70;;
27802;SDS011;15182;48.174;11.562;2023-04-29T01:15:02;1.80;;;1.80;;
27802;SDS011;15182;48.174;11.562;2023-04-29T01:17:35;1.90;;;1.90;;
27802;SDS011;15182;48.174;11.562;2023-04-29T01:20:09;1.80;;;1.80;;
27802;SDS011;15182;48.174;11.562;2023-04-29T01:22:38;1.77;;;1.77;;
27802;SDS011;15182;48.174;11.562;2023-04-29T01:25:08;1.80;;;1.80;;
27802;SDS011;15182;48.174;11.562;2023-04-29T01:28:01;1.90;;;1.90;;
27802;SDS011;15182;48.174;11.562;2023-04-29T01:30:41;1.60;;;1.60;;
27802;SDS011;15182;48.174;11.562;2023-04-29T01:33:20;1.80;;;1.80;;
27802;SDS011;15182;48.174;11.562;2023-04-29T01:35:59;1.50;;;1.50;;
27802;SDS011;15182;48.174;11.562;2023-04-29T01:38:46;1.70;;;1.70;;
27802;SDS011;15182;48.174;11.562;2023-04-29T01:41:25;1.70;;;1.60;;
27802;SDS011;15182;48.174;11.562;2023-04-29T01:44:12;2.40;;;1.93;;
27802;SDS011;15182;48.174;11.562;2023-04-29T01:46:46;1.60;;;1.60;;
27802;SDS011;15182;48.174;11.562;2023-04-29T01:49:19;1.60;;;1.60;;
27802;SDS011;15182;48.174;11.562;2023-04-29T01:51:47;1.70;;;1.70;;
27802;SDS011;15182;48.174;11.562;2023-04-29T01:54:15;1.70;;;1.70;;
27802;SDS011;15182;48.174;11.562;2023-04-29T01:56:45;1.90;;;1.90;;
27802;SDS011;15182;48.174;11.562;2023-04-29T01:59:21;1.90;;;1.90;;
27802;SDS011;15182;48.174;11.562;2023-04-29T02:02:12;1.70;;;1.70;;
27802;SDS011;15182;48.174;11.562;2023-04-29T02:04:50;1.70;;;1.70;;
27802;SDS011;15182;48.174;11.562;2023-04-29T02:07:18;1.70;;;1.70;;
27802;SDS011;15182;48.174;11.562;2023-04-29T02:09:47;1.83;;;1.80;;
27802;SDS011;15182;48.174;11.562;2023-04-29T02:19:45;1.63;;;1.63;;
27802;SDS011;15182;48.174;11.562;2023-04-29T02:22:13;1.83;;;1.73;;
27802;SDS011;15182;48.174;11.562;2023-04-29T02:24:40;1.77;;;1.77;;
27802;SDS011;15182;48.174;11.562;2023-04-29T02:27:07;1.77;;;1.77;;
27802;SDS011;15182;48.174;11.562;2023-04-29T02:29:35;1.80;;;1.80;;
27802;SDS011;15182;48.174;11.562;2023-04-29T02:32:02;1.90;;;1.90;;
27802;SDS011;15182;48.174;11.562;2023-04-29T02:34:29;1.73;;;1.73;;
27802;SDS011;15182;48.174;11.562;2023-04-29T02:36:58;1.80;;;1.80;;
27802;SDS011;15182;48.174;11.562;2023-04-29T02:44:32;1.90;;;1.90;;
27802;SDS011;15182;48.174;11.562;2023-04-29T02:46:59;1.80;;;1.80;;
27802;SDS011;15182;48.174;11.562;2023-04-29T02:49:27;1.90;;;1.90;;
27802;SDS011;15182;48.174;11.562;2023-04-29T02:51:54;1.80;;;1.80;;
27802;SDS011;15182;48.174;11.562;2023-04-29T02:54:22;1.70;;;1.70;;
27802;SDS011;15182;48.174;11.562;2023-04-29T02:56:49;2.10;;;2.10;;
27802;SDS011;15182;48.174;11.562;2023-04-29T02:59:16;2.10;;;2.10;;
27802;SDS011;15182;48.174;11.562;2023-04-29T03:01:44;1.70;;;1.70;;
27802;SDS011;15182;48.174;11.562;2023-04-29T03:09:12;1.90;;;1.90;;
27802;SDS011;15182;48.174;11.562;2023-04-29T03:11:40;1.90;;;1.90;;
27802;SDS011;15182;48.174;11.562;2023-04-29T03:14:07;2.30;;;2.10;;
27802;SDS011;15182;48.174;11.562;2023-04-29T03:16:35;2.00;;;2.00;;
27802;SDS011;15182;48.174;11.562;2023-04-29T03:19:02;1.93;;;1.93;;
27802;SDS011;15182;48.174;11.562;2023-04-29T03:21:29;2.00;;;1.90;;
27802;SDS011;15182;48.174;11.562;2023-04-29T03:23:57;1.90;;;1.90;;
27802;SDS011;15182;48.174;11.562;2023-04-29T03:26:32;2.07;;;2.07;;
27802;SDS011;15182;48.174;11.562;2023-04-29T03:34:04;1.70;;;1.70;;
27802;SDS011;15182;48.174;11.562;2023-04-29T03:36:35;2.03;;;2.03;;
27802;SDS011;15182;48.174;11.562;2023-04-29T03:39:06;1.83;;;1.83;;
27802;SDS011;15182;48.174;11.562;2023-04-29T03:41:33;1.87;;;1.87;;
27802;SDS011;15182;48.174;11.562;2023-04-29T03:44:00;2.23;;;2.10;;
27802;SDS011;15182;48.174;11.562;2023-04-29T03:46:28;2.20;;;2.20;;
27802;SDS011;15182;48.174;11.562;2023-04-29T03:48:56;1.90;;;1.90;;
27802;SDS011;15182;48.174;11.562;2023-04-29T03:51:24;1.80;;;1.80;;
27802;SDS011;15182;48.174;11.562;2023-04-29T03:53:59;1.83;;;1.83;;
27802;SDS011;15182;48.174;11.562;2023-04-29T03:59:20;2.00;;;2.00;;
27802;SDS011;15182;48.174;11.562;2023-04-29T04:01:49;2.00;;;2.00;;
27802;SDS011;15182;48.174;11.562;2023-04-29T04:04:18;2.10;;;2.10;;
27802;SDS011;15182;48.174;11.562;2023-04-29T04:06:48;2.23;;;2.23;;
27802;SDS011;15182;48.174;11.562;2023-04-29T04:09:17;2.10;;;2.10;;
27802;SDS011;15182;48.174;11.562;2023-04-29T04:11:44;2.10;;;2.10;;
27802;SDS011;15182;48.174;11.562;2023-04-29T04:14:12;2.30;;;2.30;;
27802;SDS011;15182;48.174;11.562;2023-04-29T04:21:43;2.10;;;2.00;;
27802;SDS011;15182;48.174;11.562;2023-04-29T04:24:11;2.07;;;2.07;;
27802;SDS011;15182;48.174;11.562;2023-04-29T04:26:38;1.80;;;1.80;;
27802;SDS011;15182;48.174;11.562;2023-04-29T04:29:15;1.97;;;1.87;;
27802;SDS011;15182;48.174;11.562;2023-04-29T04:32:01;2.00;;;2.00;;
27802;SDS011;15182;48.174;11.562;2023-04-29T04:34:30;2.00;;;2.00;;
27802;SDS011;15182;48.174;11.562;2023-04-29T04:37:00;2.13;;;2.03;;
27802;SDS011;15182;48.174;11.562;2023-04-29T04:47:55;2.10;;;2.10;;
27802;SDS011;15182;48.174;11.562;2023-04-29T04:50:26;2.27;;;2.27;;
27802;SDS011;15182;48.174;11.562;2023-04-29T04:52:54;1.97;;;1.97;;
27802;SDS011;15182;48.174;11.562;2023-04-29T04:55:43;2.63;;;2.43;;
27802;SDS011;15182;48.174;11.562;2023-04-29T04:58:12;2.47;;;2.47;;
27802;SDS011;15182;48.174;11.562;2023-04-29T05:00:42;2.30;;;2.10;;
27802;SDS011;15182;48.174;11.562;2023-04-29T05:03:11;2.00;;;2.00;;
27802;SDS011;15182;48.174;11.562;2023-04-29T05:08:16;2.00;;;2.00;;
27802;SDS011;15182;48.174;11.562;2023-04-29T05:10:46;2.20;;;2.20;;
27802;SDS011;15182;48.174;11.562;2023-04-29T05:13:14;2.10;;;2.10;;
27802;SDS011;15182;48.174;11.562;2023-04-29T05:15:41;1.90;;;1.90;;
27802;SDS011;15182;48.174;11.562;2023-04-29T05:18:09;2.00;;;2.00;;
27802;SDS011;15182;48.174;11.562;2023-04-29T05:20:37;2.30;;;2.30;;
27802;SDS011;15182;48.174;11.562;2023-04-29T05:23:04;2.50;;;2.50;;
27802;SDS011;15182;48.174;11.562;2023-04-29T05:25:37;2.60;;;2.40;;
27802;SDS011;15182;48.174;11.562;2023-04-29T05:33:11;2.00;;;2.00;;
27802;SDS011;15182;48.174;11.562;2023-04-29T05:35:39;2.20;;;2.20;;
27802;SDS011;15182;48.174;11.562;2023-04-29T05:38:06;2.27;;;2.27;;
27802;SDS011;15182;48.174;11.562;2023-04-29T05:40:36;2.10;;;2.10;;
27802;SDS011;15182;48.174;11.562;2023-04-29T05:43:21;2.20;;;2.20;;
27802;SDS011;15182;48.174;11.562;2023-04-29T05:45:49;2.00;;;2.00;;
27802;SDS011;15182;48.174;11.562;2023-04-29T05:48:17;2.13;;;2.13;;
27802;SDS011;15182;48.174;11.562;2023-04-29T05:50:44;4.07;;;1.93;;
27802;SDS011;15182;48.174;11.562;2023-04-29T05:58:19;2.10;;;2.10;;
27802;SDS011;15182;48.174;11.562;2023-04-29T06:00:46;2.53;;;2.47;;
27802;SDS011;15182;48.174;11.562;2023-04-29T06:03:19;2.17;;;2.17;;
27802;SDS011;15182;48.174;11.562;2023-04-29T06:05:51;2.50;;;2.40;;
27802;SDS011;15182;48.174;11.562;2023-04-29T06:08:31;2.73;;;2.63;;
27802;SDS011;15182;48.174;11.562;2023-04-29T06:11:13;2.90;;;2.90;;
27802;SDS011;15182;48.174;11.562;2023-04-29T06:13:42;3.00;;;2.80;;
27802;SDS011;15182;48.174;11.562;2023-04-29T06:19:46;3.20;;;3.10;;
27802;SDS011;15182;48.174;11.562;2023-04-29T06:22:13;3.43;;;3.33;;
27802;SDS011;15182;48.174;11.562;2023-04-29T06:24:47;3.10;;;3.07;;
27802;SDS011;15182;48.174;11.562;2023-04-29T06:27:20;7.40;;;3.10;;
27802;SDS011;15182;48.174;11.562;2023-04-29T06:29:47;3.50;;;3.40;;
27802;SDS011;15182;48.174;11.562;2023-04-29T06:32:14;3.07;;;3.07;;
27802;SDS011;15182;48.174;11.562;2023-04-29T06:34:42;3.50;;;3.30;;
27802;SDS011;15182;48.174;11.562;2023-04-29T06:40:57;3.00;;;3.00;;
27802;SDS011;15182;48.174;11.562;2023-04-29T06:43:44;3.47;;;3.27;;
27802;SDS011;15182;48.174;11.562;2023-04-29T06:46:29;3.20;;;3.20;;
27802;SDS011;15182;48.174;11.562;2023-04-29T06:49:07;3.63;;;3.50;;
27802;SDS011;15182;48.174;11.562;2023-04-29T06:51:35;4.20;;;4.10;;
27802;SDS011;15182;48.174;11.562;2023-04-29T06:54:02;3.63;;;3.53;;
27802;SDS011;15182;48.174;11.562;2023-04-29T06:56:30;3.57;;;3.47;;
27802;SDS011;15182;48.174;11.562;2023-04-29T07:06:25;3.33;;;3.33;;
27802;SDS011;15182;48.174;11.562;2023-04-29T07:08:53;3.60;;;3.50;;
27802;SDS011;15182;48.174;11.562;2023-04-29T07:11:21;3.57;;;3.47;;
27802;SDS011;15182;48.174;11.562;2023-04-29T07:13:51;3.17;;;3.13;;
27802;SDS011;15182;48.174;11.562;2023-04-29T07:16:19;3.70;;;3.60;;
27802;SDS011;15182;48.174;11.562;2023-04-29T07:18:51;3.70;;;3.50;;
27802;SDS011;15182;48.174;11.562;2023-04-29T07:21:18;3.27;;;3.17;;
27802;SDS011;15182;48.174;11.562;2023-04-29T07:23:48;3.20;;;3.10;;
27802;SDS011;15182;48.174;11.562;2023-04-29T07:26:16;3.33;;;3.23;;
27802;SDS011;15182;48.174;11.562;2023-04-29T07:28:45;3.27;;;3.27;;
27802;SDS011;15182;48.174;11.562;2023-04-29T07:31:14;3.20;;;3.10;;
27802;SDS011;15182;48.174;11.562;2023-04-29T07:33:45;3.13;;;3.10;;
27802;SDS011;15182;48.174;11.562;2023-04-29T07:36:14;3.20;;;3.10;;
27802;SDS011;15182;48.174;11.562;2023-04-29T07:38:42;3.77;;;3.57;;
27802;SDS011;15182;48.174;11.562;2023-04-29T07:41:11;4.00;;;3.67;;
27802;SDS011;15182;48.174;11.562;2023-04-29T07:43:39;3.73;;;3.43;;
27802;SDS011;15182;48.174;11.562;2023-04-29T07:46:07;3.30;;;3.20;;
27802;SDS011;15182;48.174;11.562;2023-04-29T07:48:35;3.63;;;3.47;;
27802;SDS011;15182;48.174;11.562;2023-04-29T07:51:04;3.80;;;3.60;;
27802;SDS011;15182;48.174;11.562;2023-04-29T07:53:32;3.27;;;3.07;;
27802;SDS011;15182;48.174;11.562;2023-04-29T07:56:03;3.67;;;3.50;;
27802;SDS011;15182;48.174;11.562;2023-04-29T07:58:33;3.17;;;3.07;;
27802;SDS011;15182;48.174;11.562;2023-04-29T08:01:05;4.93;;;3.13;;
27802;SDS011;15182;48.174;11.562;2023-04-29T08:03:33;3.10;;;3.00;;
27802;SDS011;15182;48.174;11.562;2023-04-29T08:06:02;3.13;;;3.10;;
27802;SDS011;15182;48.174;11.562;2023-04-29T08:08:33;3.10;;;2.90;;
27802;SDS011;15182;48.174;11.562;2023-04-29T08:11:01;3.20;;;3.00;;
27802;SDS011;15182;48.174;11.562;2023-04-29T08:13:29;3.20;;;3.00;;
27802;SDS011;15182;48.174;11.562;2023-04-29T08:15:58;3.43;;;3.23;;
27802;SDS011;15182;48.174;11.562;2023-04-29T08:18:26;2.90;;;2.80;;
27802;SDS011;15182;48.174;11.562;2023-04-29T08:20:53;2.97;;;2.97;;
27802;SDS011;15182;48.174;11.562;2023-04-29T08:23:21;2.73;;;2.60;;
27802;SDS011;15182;48.174;11.562;2023-04-29T08:25:49;2.50;;;2.40;;
27802;SDS011;15182;48.174;11.562;2023-04-29T08:28:18;2.50;;;2.40;;
27802;SDS011;15182;48.174;11.562;2023-04-29T08:30:46;2.77;;;2.57;;
27802;SDS011;15182;48.174;11.562;2023-04-29T08:33:15;2.50;;;2.40;;
27802;SDS011;15182;48.174;11.562;2023-04-29T08:35:42;2.30;;;2.20;;
27802;SDS011;15182;48.174;11.562;2023-04-29T08:38:10;3.07;;;2.40;;
27802;SDS011;15182;48.174;11.562;2023-04-29T08:40:40;2.53;;;2.53;;
27802;SDS011;15182;48.174;11.562;2023-04-29T08:43:10;4.18;;;2.40;;
27802;SDS011;15182;48.174;11.562;2023-04-29T08:45:40;2.50;;;2.50;;
27802;SDS011;15182;48.174;11.562;2023-04-29T08:48:08;2.40;;;2.40;;
27802;SDS011;15182;48.174;11.562;2023-04-29T08:50:38;2.20;;;2.20;;
27802;SDS011;15182;48.174;11.562;2023-04-29T08:53:07;2.22;;;2.22;;
27802;SDS011;15182;48.174;11.562;2023-04-29T08:55:44;2.17;;;2.17;;
27802;SDS011;15182;48.174;11.562;2023-04-29T08:58:13;2.37;;;2.27;;
27802;SDS011;15182;48.174;11.562;2023-04-29T09:00:42;2.40;;;2.22;;
27802;SDS011;15182;48.174;11.562;2023-04-29T09:03:12;2.13;;;2.13;;
27802;SDS011;15182;48.174;11.562;2023-04-29T09:05:51;2.78;;;2.15;;
27802;SDS011;15182;48.174;11.562;2023-04-29T09:08:22;2.28;;;1.98;;
27802;SDS011;15182;48.174;11.562;2023-04-29T09:10:50;2.33;;;2.30;;
27802;SDS011;15182;48.174;11.562;2023-04-29T09:13:22;2.83;;;2.20;;
27802;SDS011;15182;48.174;11.562;2023-04-29T09:15:51;2.15;;;2.15;;
27802;SDS011;15182;48.174;11.562;2023-04-29T09:21:13;1.90;;;1.90;;
27802;SDS011;15182;48.174;11.562;2023-04-29T09:23:42;2.20;;;2.10;;
27802;SDS011;15182;48.174;11.562;2023-04-29T09:26:11;2.15;;;1.98;;
27802;SDS011;15182;48.174;11.562;2023-04-29T09:28:39;2.03;;;1.92;;
27802;SDS011;15182;48.174;11.562;2023-04-29T09:31:10;3.92;;;2.17;;
27802;SDS011;15182;48.174;11.562;2023-04-29T09:33:51;1.95;;;1.95;;
27802;SDS011;15182;48.174;11.562;2023-04-29T09:36:40;2.00;;;1.90;;
27802;SDS011;15182;48.174;11.562;2023-04-29T09:39:11;2.30;;;2.30;;
27802;SDS011;15182;48.174;11.562;2023-04-29T09:41:42;1.88;;;1.88;;
27802;SDS011;15182;48.174;11.562;2023-04-29T09:44:25;2.10;;;2.10;;
27802;SDS011;15182;48.174;11.562;2023-04-29T09:46:55;1.90;;;1.90;;
27802;SDS011;15182;48.174;11.562;2023-04-29T09:49:27;2.15;;;2.05;;
27802;SDS011;15182;48.174;11.562;2023-04-29T09:51:59;2.25;;;2.17;;
27802;SDS011;15182;48.174;11.562;2023-04-29T09:54:29;2.05;;;1.85;;
27802;SDS011;15182;48.174;11.562;2023-04-29T09:56:59;1.75;;;1.70;;
27802;SDS011;15182;48.174;11.562;2023-04-29T09:59:31;1.60;;;1.60;;
27802;SDS011;15182;48.174;11.562;2023-04-29T10:02:01;1.60;;;1.60;;
27802;SDS011;15182;48.174;11.562;2023-04-29T10:04:37;2.08;;;1.80;;
27802;SDS011;15182;48.174;11.562;2023-04-29T10:07:10;2.03;;;2.03;;
27802;SDS011;15182;48.174;11.562;2023-04-29T10:09:41;2.20;;;2.20;;
27802;SDS011;15182;48.174;11.562;2023-04-29T10:12:13;2.80;;;2.70;;
27802;SDS011;15182;48.174;11.562;2023-04-29T10:14:44;2.63;;;2.50;;
27802;SDS011;15182;48.174;11.562;2023-04-29T10:17:20;2.45;;;2.33;;
27802;SDS011;15182;48.174;11.562;2023-04-29T10:20:00;2.17;;;2.17;;
27802;SDS011;15182;48.174;11.562;2023-04-29T10:22:35;2.60;;;2.60;;
27802;SDS011;15182;48.174;11.562;2023-04-29T10:25:11;3.88;;;2.70;;
27802;SDS011;15182;48.174;11.562;2023-04-29T10:27:42;2.17;;;2.17;;
27802;SDS011;15182;48.174;11.562;2023-04-29T10:30:11;2.30;;;2.30;;
27802;SDS011;15182;48.174;11.562;2023-04-29T10:32:41;2.00;;;2.00;;
27802;SDS011;15182;48.174;11.562;2023-04-29T10:35:10;2.75;;;2.08;;
27802;SDS011;15182;48.174;11.562;2023-04-29T10:37:41;4.70;;;1.98;;
27802;SDS011;15182;48.174;11.562;2023-04-29T10:40:13;1.90;;;1.85;;
27802;SDS011;15182;48.174;11.562;2023-04-29T10:42:46;1.95;;;1.95;;
27802;SDS011;15182;48.174;11.562;2023-04-29T10:45:16;1.95;;;1.95;;
27802;SDS011;15182;48.174;11.562;2023-04-29T10:50:39;2.20;;;2.10;;
27802;SDS011;15182;48.174;11.562;2023-04-29T10:53:27;2.03;;;2.00;;
27802;SDS011;15182;48.174;11.562;2023-04-29T10:55:57;1.98;;;1.98;;
27802;SDS011;15182;48.174;11.562;2023-04-29T10:58:34;2.10;;;2.00;;
27802;SDS011;15182;48.174;11.562;2023-04-29T11:01:12;2.28;;;2.17;;
27802;SDS011;15182;48.174;11.562;2023-04-29T11:03:46;2.00;;;1.90;;
27802;SDS011;15182;48.174;11.562;2023-04-29T11:06:24;1.77;;;1.77;;
27802;SDS011;15182;48.174;11.562;2023-04-29T11:09:08;1.75;;;1.75;;
27802;SDS011;15182;48.174;11.562;2023-04-29T11:11:55;1.70;;;1.70;;
27802;SDS011;15182;48.174;11.562;2023-04-29T11:14:37;1.75;;;1.67;;
27802;SDS011;15182;48.174;11.562;2023-04-29T11:17:08;1.92;;;1.83;;
27802;SDS011;15182;48.174;11.562;2023-04-29T11:19:40;1.65;;;1.65;;
27802;SDS011;15182;48.174;11.562;2023-04-29T11:22:12;1.80;;;1.70;;
27802;SDS011;15182;48.174;11.562;2023-04-29T11:24:52;1.80;;;1.80;;
27802;SDS011;15182;48.174;11.562;2023-04-29T11:27:22;1.67;;;1.67;;
27802;SDS011;15182;48.174;11.562;2023-04-29T11:29:52;1.77;;;1.58;;
27802;SDS011;15182;48.174;11.562;2023-04-29T11:32:24;1.60;;;1.60;;
27802;SDS011;15182;48.174;11.562;2023-04-29T11:34:53;1.52;;;1.52;;
27802;SDS011;15182;48.174;11.562;2023-04-29T11:37:22;1.60;;;1.60;;
27802;SDS011;15182;48.174;11.562;2023-04-29T11:39:58;5.45;;;1.70;;
27802;SDS011;15182;48.174;11.562;2023-04-29T11:42:27;1.73;;;1.60;;
27802;SDS011;15182;48.174;11.562;2023-04-29T11:44:55;2.60;;;1.50;;
27802;SDS011;15182;48.174;11.562;2023-04-29T11:47:25;1.52;;;1.42;;
27802;SDS011;15182;48.174;11.562;2023-04-29T11:50:00;1.52;;;1.50;;
27802;SDS011;15182;48.174;11.562;2023-04-29T11:52:30;2.65;;;1.80;;
27802;SDS011;15182;48.174;11.562;2023-04-29T11:55:00;1.60;;;1.60;;
27802;SDS011;15182;48.174;11.562;2023-04-29T11:57:28;1.70;;;1.60;;
27802;SDS011;15182;48.174;11.562;2023-04-29T11:59:56;1.40;;;1.40;;
27802;SDS011;15182;48.174;11.562;2023-04-29T12:02:27;1.70;;;1.67;;
27802;SDS011;15182;48.174;11.562;2023-04-29T12:04:56;1.45;;;1.45;;
27802;SDS011;15182;48.174;11.562;2023-04-29T12:07:25;1.50;;;1.50;;
27802;SDS011;15182;48.174;11.562;2023-04-29T12:09:54;1.70;;;1.60;;
27802;SDS011;15182;48.174;11.562;2023-04-29T12:12:24;1.50;;;1.38;;
27802;SDS011;15182;48.174;11.562;2023-04-29T12:14:53;1.55;;;1.45;;
27802;SDS011;15182;48.174;11.562;2023-04-29T12:17:21;1.85;;;1.40;;
27802;SDS011;15182;48.174;11.562;2023-04-29T12:19:49;1.30;;;1.30;;
27802;SDS011;15182;48.174;11.562;2023-04-29T12:22:18;1.50;;;1.50;;
27802;SDS011;15182;48.174;11.562;2023-04-29T12:24:45;1.85;;;1.30;;
27802;SDS011;15182;48.174;11.562;2023-04-29T12:27:15;1.73;;;1.63;;
27802;SDS011;15182;48.174;11.562;2023-04-29T12:29:45;1.50;;;1.50;;
27802;SDS011;15182;48.174;11.562;2023-04-29T12:32:15;1.50;;;1.50;;
27802;SDS011;15182;48.174;11.562;2023-04-29T12:34:44;1.50;;;1.48;;
27802;SDS011;15182;48.174;11.562;2023-04-29T12:37:12;1.27;;;1.27;;
27802;SDS011;15182;48.174;11.562;2023-04-29T12:39:41;1.55;;;1.55;;
27802;SDS011;15182;48.174;11.562;2023-04-29T12:42:13;1.40;;;1.40;;
27802;SDS011;15182;48.174;11.562;2023-04-29T12:44:44;1.60;;;1.60;;
27802;SDS011;15182;48.174;11.562;2023-04-29T12:47:13;1.50;;;1.50;;
27802;SDS011;15182;48.174;11.562;2023-04-29T12:49:42;1.40;;;1.40;;
27802;SDS011;15182;48.174;11.562;2023-04-29T12:52:11;1.50;;;1.40;;
27802;SDS011;15182;48.174;11.562;2023-04-29T12:54:39;1.75;;;1.30;;
27802;SDS011;15182;48.174;11.562;2023-04-29T12:57:08;1.23;;;1.23;;
27802;SDS011;15182;48.174;11.562;2023-04-29T12:59:36;1.40;;;1.40;;
27802;SDS011;15182;48.174;11.562;2023-04-29T13:02:06;1.10;;;1.10;;
27802;SDS011;15182;48.174;11.562;2023-04-29T13:04:34;2.00;;;1.30;;
27802;SDS011;15182;48.174;11.562;2023-04-29T13:07:02;3.60;;;1.15;;
27802;SDS011;15182;48.174;11.562;2023-04-29T13:09:30;1.50;;;1.40;;
27802;SDS011;15182;48.174;11.562;2023-04-29T13:11:58;1.40;;;1.40;;
27802;SDS011;15182;48.174;11.562;2023-04-29T13:14:27;1.13;;;1.13;;
27802;SDS011;15182;48.174;11.562;2023-04-29T13:16:55;1.30;;;1.30;;
27802;SDS011;15182;48.174;11.562;2023-04-29T13:19:24;1.45;;;1.45;;
27802;SDS011;15182;48.174;11.562;2023-04-29T13:21:52;1.38;;;1.38;;
27802;SDS011;15182;48.174;11.562;2023-04-29T13:24:19;1.38;;;1.20;;
27802;SDS011;15182;48.174;11.562;2023-04-29T13:26:47;1.30;;;1.30;;
27802;SDS011;15182;48.174;11.562;2023-04-29T13:29:15;1.25;;;1.25;;
27802;SDS011;15182;48.174;11.562;2023-04-29T13:31:43;8.63;;;1.13;;
27802;SDS011;15182;48.174;11.562;2023-04-29T13:34:10;1.60;;;1.13;;
27802;SDS011;15182;48.174;11.562;2023-04-29T13:36:39;1.98;;;1.13;;
27802;SDS011;15182;48.174;11.562;2023-04-29T13:39:07;1.00;;;1.00;;
27802;SDS011;15182;48.174;11.562;2023-04-29T13:41:35;1.95;;;0.95;;
27802;SDS011;15182;48.174;11.562;2023-04-29T13:44:03;5.28;;;1.20;;
27802;SDS011;15182;48.174;11.562;2023-04-29T13:46:31;1.20;;;1.10;;
27802;SDS011;15182;48.174;11.562;2023-04-29T13:48:58;1.58;;;1.20;;
27802;SDS011;15182;48.174;11.562;2023-04-29T13:51:27;1.10;;;1.10;;
27802;SDS011;15182;48.174;11.562;2023-04-29T13:53:56;1.10;;;1.10;;
27802;SDS011;15182;48.174;11.562;2023-04-29T13:56:24;1.20;;;1.20;;
27802;SDS011;15182;48.174;11.562;2023-04-29T13:58:51;1.10;;;1.10;;
27802;SDS011;15182;48.174;11.562;2023-04-29T14:01:19;1.50;;;1.50;;
27802;SDS011;15182;48.174;11.562;2023-04-29T14:03:48;1.25;;;1.25;;
27802;SDS011;15182;48.174;11.562;2023-04-29T14:06:16;5.65;;;1.45;;
27802;SDS011;15182;48.174;11.562;2023-04-29T14:08:44;1.25;;;1.25;;
27802;SDS011;15182;48.174;11.562;2023-04-29T14:11:13;1.23;;;1.23;;
27802;SDS011;15182;48.174;11.562;2023-04-29T14:13:41;1.73;;;1.73;;
27802;SDS011;15182;48.174;11.562;2023-04-29T14:16:09;1.45;;;1.45;;
27802;SDS011;15182;48.174;11.562;2023-04-29T14:18:37;1.40;;;1.30;;
27802;SDS011;15182;48.174;11.562;2023-04-29T14:21:04;1.40;;;1.40;;
27802;SDS011;15182;48.174;11.562;2023-04-29T14:23:32;1.20;;;1.20;;
27802;SDS011;15182;48.174;11.562;2023-04-29T14:26:00;2.50;;;1.25;;
27802;SDS011;15182;48.174;11.562;2023-04-29T14:28:29;1.40;;;1.40;;
27802;SDS011;15182;48.174;11.562;2023-04-29T14:30:57;2.45;;;1.10;;
27802;SDS011;15182;48.174;11.562;2023-04-29T14:33:25;1.30;;;1.30;;
27802;SDS011;15182;48.174;11.562;2023-04-29T14:35:53;1.30;;;1.30;;
27802;SDS011;15182;48.174;11.562;2023-04-29T14:38:21;1.40;;;1.40;;
27802;SDS011;15182;48.174;11.562;2023-04-29T14:40:49;1.20;;;1.20;;
27802;SDS011;15182;48.174;11.562;2023-04-29T14:43:16;1.30;;;1.30;;
27802;SDS011;15182;48.174;11.562;2023-04-29T14:45:46;1.30;;;1.30;;
27802;SDS011;15182;48.174;11.562;2023-04-29T14:48:13;1.38;;;1.38;;
27802;SDS011;15182;48.174;11.562;2023-04-29T14:50:41;1.30;;;1.30;;
27802;SDS011;15182;48.174;11.562;2023-04-29T14:53:09;2.63;;;1.20;;
27802;SDS011;15182;48.174;11.562;2023-04-29T14:55:37;1.45;;;1.45;;
27802;SDS011;15182;48.174;11.562;2023-04-29T14:58:05;1.15;;;1.15;;
27802;SDS011;15182;48.174;11.562;2023-04-29T15:00:34;1.33;;;1.33;;
27802;SDS011;15182;48.174;11.562;2023-04-29T15:03:03;1.42;;;1.33;;
27802;SDS011;15182;48.174;11.562;2023-04-29T15:05:31;1.30;;;1.30;;
27802;SDS011;15182;48.174;11.562;2023-04-29T15:07:59;1.20;;;1.20;;
27802;SDS011;15182;48.174;11.562;2023-04-29T15:10:28;1.25;;;1.25;;
27802;SDS011;15182;48.174;11.562;2023-04-29T15:12:56;1.30;;;1.30;;
27802;SDS011;15182;48.174;11.562;2023-04-29T15:15:24;1.20;;;1.20;;
27802;SDS011;15182;48.174;11.562;2023-04-29T15:17:51;1.50;;;1.50;;
27802;SDS011;15182;48.174;11.562;2023-04-29T15:20:20;1.50;;;1.50;;
27802;SDS011;15182;48.174;11.562;2023-04-29T15:22:48;1.38;;;1.33;;
27802;SDS011;15182;48.174;11.562;2023-04-29T15:25:16;1.70;;;1.70;;
27802;SDS011;15182;48.174;11.562;2023-04-29T15:27:44;1.50;;;1.50;;
27802;SDS011;15182;48.174;11.562;2023-04-29T15:30:12;1.60;;;1.60;;
27802;SDS011;15182;48.174;11.562;2023-04-29T15:32:41;1.60;;;1.60;;
27802;SDS011;15182;48.174;11.562;2023-04-29T15:35:09;1.30;;;1.30;;
27802;SDS011;15182;48.174;11.562;2023-04-29T15:37:38;1.55;;;1.45;;
27802;SDS011;15182;48.174;11.562;2023-04-29T15:40:07;1.38;;;1.38;;
27802;SDS011;15182;48.174;11.562;2023-04-29T15:42:35;1.50;;;1.50;;
27802;SDS011;15182;48.174;11.562;2023-04-29T15:45:03;1.50;;;1.50;;
27802;SDS011;15182;48.174;11.562;2023-04-29T15:47:33;1.83;;;1.75;;
27802;SDS011;15182;48.174;11.562;2023-04-29T15:50:01;1.60;;;1.60;;
27802;SDS011;15182;48.174;11.562;2023-04-29T15:52:29;3.80;;;3.50;;
27802;SDS011;15182;48.174;11.562;2023-04-29T15:54:58;63.92;;;32.03;;
27802;SDS011;15182;48.174;11.562;2023-04-29T15:57:25;183.95;;;92.20;;
27802;SDS011;15182;48.174;11.562;2023-04-29T15:59:53;108.40;;;57.25;;
27802;SDS011;15182;48.174;11.562;2023-04-29T16:02:21;42.13;;;24.23;;
27802;SDS011;15182;48.174;11.562;2023-04-29T16:04:49;27.65;;;16.75;;
27802;SDS011;15182;48.174;11.562;2023-04-29T16:07:16;12.63;;;9.25;;